Arjeplog, Sweden

11:45 PM CEST on September 18, 2014 (GMT +0200)
Arvidsjaur | Change Station
CLOSE
Current Station
Airport
Location: ARVIDSJAUR,
Elevation: 1243 ft
Nearby Weather Stations

Elev 1243 ft 65.59 °N, 19.28 °E | Updated 25 minutes ago

Fog
Fog
45 °F
Feels Like 42 °F
N
5
Wind Variable Wind from East

Today
High -- | Low -- °F
--% Chance of Precip.
Yesterday
High -- | Low -- °F
Precip. -- in
6:17 AM 7:06 PM
Waning Crescent, 24% visible
Pressure 30.09 in
Visibility 0.1 miles
Clouds
Windchill 42 °F
Dew Point 45 °F
Humidity 100%
Rainfall 0.00 in
Snow Depth Not available.
UV Not available.
Pollen Not available.
Air Quality Not available.
Flu Activity Not available.
METAR ESNX 182120Z AUTO 09004KT 0150NDV R12/0600N R30/1100D FG VV000 07/07 Q1019

More Conditions Fewer Conditions

Pressure 30.09 in
Visibility 0.1 miles
Clouds
Windchill 42 °F
Dew Point 45 °F
Humidity 100%
Rainfall 0.00 in
Snow Depth Not available.
UV Not available.
Pollen Not available.
Air Quality Not available.
Flu Activity Not available.
METAR ESNX 182120Z AUTO 09004KT 0150NDV R12/0600N R30/1100D FG VV000 07/07 Q1019

More Conditions Fewer Conditions

10-Day Weather Forecast

Almanac

Astronomy

Sep. 18, 2014 Rise Set
Actual Time 6:17 AM CEST 7:06 PM CEST
Civil Twilight 5:24 AM CEST 7:58 PM CEST
Nautical Twilight 4:18 AM CEST 9:03 PM CEST
Astronomical Twilight 2:54 AM CEST 10:25 PM CEST
Moon No Moon Rise 5:20 PM CEST
Length of Visible Light 14h 33m
Length of Day
12h 48m
Tomorrow will be 7m 1s shorter.
Waning Crescent, 24% of the Moon is Illuminated
Today
Waning Crescent
Sep 24
New
Oct 1
First Quarter
Oct 8
Full
Oct 15
Last Quarter

Today's Extremes

Country Highs Country Lows

Community

WunderPhotos

Upload Photos

1,754,452 photos uploaded!

WunderBlogs® & News

Nearby

Snow Depth

Not available.

Earthquake Activity

City Distance Mag. Time & Date
No recent earthquake activity has been reported nearby.
Minimum magnitude displayed is 2.5.

Coastal Water Temperatures

Place Temperature
No Stations Reporting

Nearby Weather Stations